sensor_id;sensor_type;location;lat;lon;timestamp;temperature;humidity
32865;DHT22;19219;44.500;11.188;2023-01-16T00:00:54;7.20;99.90
32865;DHT22;19219;44.500;11.188;2023-01-16T00:03:20;7.10;99.90
32865;DHT22;19219;44.500;11.188;2023-01-16T00:05:46;7.10;99.90
32865;DHT22;19219;44.500;11.188;2023-01-16T00:08:12;7.10;99.90
32865;DHT22;19219;44.500;11.188;2023-01-16T00:10:38;7.20;99.90
32865;DHT22;19219;44.500;11.188;2023-01-16T00:13:04;7.20;99.90
32865;DHT22;19219;44.500;11.188;2023-01-16T00:15:30;7.10;99.90
32865;DHT22;19219;44.500;11.188;2023-01-16T00:17:56;7.10;99.90
32865;DHT22;19219;44.500;11.188;2023-01-16T00:20:32;7.20;99.90
32865;DHT22;19219;44.500;11.188;2023-01-16T00:22:58;7.20;99.90
32865;DHT22;19219;44.500;11.188;2023-01-16T00:25:23;7.20;99.90
32865;DHT22;19219;44.500;11.188;2023-01-16T00:27:49;7.20;99.90
32865;DHT22;19219;44.500;11.188;2023-01-16T00:30:15;7.20;99.90
32865;DHT22;19219;44.500;11.188;2023-01-16T00:32:40;7.20;99.90
32865;DHT22;19219;44.500;11.188;2023-01-16T00:35:06;7.20;99.90
32865;DHT22;19219;44.500;11.188;2023-01-16T00:37:32;7.30;99.90
32865;DHT22;19219;44.500;11.188;2023-01-16T00:39:57;7.30;99.90
32865;DHT22;19219;44.500;11.188;2023-01-16T00:42:23;7.30;99.90
32865;DHT22;19219;44.500;11.188;2023-01-16T00:44:49;7.30;99.90
32865;DHT22;19219;44.500;11.188;2023-01-16T00:47:14;7.40;99.90
32865;DHT22;19219;44.500;11.188;2023-01-16T00:49:40;7.40;99.90
32865;DHT22;19219;44.500;11.188;2023-01-16T00:52:06;7.30;99.90
32865;DHT22;19219;44.500;11.188;2023-01-16T00:54:31;7.20;99.90
32865;DHT22;19219;44.500;11.188;2023-01-16T00:56:57;7.20;99.90
32865;DHT22;19219;44.500;11.188;2023-01-16T00:59:23;7.20;99.90
32865;DHT22;19219;44.500;11.188;2023-01-16T01:01:48;7.20;99.90
32865;DHT22;19219;44.500;11.188;2023-01-16T01:04:14;7.20;99.90
32865;DHT22;19219;44.500;11.188;2023-01-16T01:06:40;7.20;99.90
32865;DHT22;19219;44.500;11.188;2023-01-16T01:09:06;7.10;99.90
32865;DHT22;19219;44.500;11.188;2023-01-16T01:11:31;7.10;99.90
32865;DHT22;19219;44.500;11.188;2023-01-16T01:13:57;7.20;99.90
32865;DHT22;19219;44.500;11.188;2023-01-16T01:16:23;7.20;99.90
32865;DHT22;19219;44.500;11.188;2023-01-16T01:18:50;7.20;99.90
32865;DHT22;19219;44.500;11.188;2023-01-16T01:21:16;7.20;99.90
32865;DHT22;19219;44.500;11.188;2023-01-16T01:23:42;7.20;99.90
32865;DHT22;19219;44.500;11.188;2023-01-16T01:26:13;7.20;99.90
32865;DHT22;19219;44.500;11.188;2023-01-16T01:28:40;7.20;99.90
32865;DHT22;19219;44.500;11.188;2023-01-16T01:31:07;7.20;99.90
32865;DHT22;19219;44.500;11.188;2023-01-16T01:33:33;7.20;99.90
32865;DHT22;19219;44.500;11.188;2023-01-16T01:35:59;7.30;99.90
32865;DHT22;19219;44.500;11.188;2023-01-16T01:38:25;7.30;99.90
32865;DHT22;19219;44.500;11.188;2023-01-16T01:40:51;7.30;99.90
32865;DHT22;19219;44.500;11.188;2023-01-16T01:43:17;7.30;99.90
32865;DHT22;19219;44.500;11.188;2023-01-16T01:45:50;7.30;99.90
32865;DHT22;19219;44.500;11.188;2023-01-16T01:48:24;7.30;99.90
32865;DHT22;19219;44.500;11.188;2023-01-16T01:51:03;7.30;99.90
32865;DHT22;19219;44.500;11.188;2023-01-16T01:53:34;7.30;99.90
32865;DHT22;19219;44.500;11.188;2023-01-16T01:58:49;7.30;99.90
32865;DHT22;19219;44.500;11.188;2023-01-16T02:01:17;7.30;99.90
32865;DHT22;19219;44.500;11.188;2023-01-16T02:03:57;7.30;99.90
32865;DHT22;19219;44.500;11.188;2023-01-16T02:06:30;7.20;99.90
32865;DHT22;19219;44.500;11.188;2023-01-16T02:08:58;7.10;99.90
32865;DHT22;19219;44.500;11.188;2023-01-16T02:11:34;7.10;99.90
32865;DHT22;19219;44.500;11.188;2023-01-16T02:14:08;7.00;99.90
32865;DHT22;19219;44.500;11.188;2023-01-16T02:16:35;7.00;99.90
32865;DHT22;19219;44.500;11.188;2023-01-16T02:22:30;6.90;99.90
32865;DHT22;19219;44.500;11.188;2023-01-16T02:28:14;6.90;99.90
32865;DHT22;19219;44.500;11.188;2023-01-16T02:34:24;7.00;99.90
32865;DHT22;19219;44.500;11.188;2023-01-16T02:45:29;6.90;99.90
32865;DHT22;19219;44.500;11.188;2023-01-16T02:55:50;6.90;99.90
32865;DHT22;19219;44.500;11.188;2023-01-16T02:58:19;6.90;99.90
32865;DHT22;19219;44.500;11.188;2023-01-16T03:00:56;6.80;99.90
32865;DHT22;19219;44.500;11.188;2023-01-16T03:03:47;6.80;99.90
32865;DHT22;19219;44.500;11.188;2023-01-16T03:08:55;6.70;99.90
32865;DHT22;19219;44.500;11.188;2023-01-16T03:11:25;6.70;99.90
32865;DHT22;19219;44.500;11.188;2023-01-16T03:14:13;6.70;99.90
32865;DHT22;19219;44.500;11.188;2023-01-16T03:20:11;6.70;99.90
32865;DHT22;19219;44.500;11.188;2023-01-16T03:22:43;6.70;99.90
32865;DHT22;19219;44.500;11.188;2023-01-16T03:25:36;6.70;99.90
32865;DHT22;19219;44.500;11.188;2023-01-16T03:31:15;6.70;99.90
32865;DHT22;19219;44.500;11.188;2023-01-16T03:33:58;6.70;99.90
32865;DHT22;19219;44.500;11.188;2023-01-16T03:37:02;6.70;99.90
32865;DHT22;19219;44.500;11.188;2023-01-16T03:39:35;6.60;99.90
32865;DHT22;19219;44.500;11.188;2023-01-16T03:42:05;6.60;99.90
32865;DHT22;19219;44.500;11.188;2023-01-16T03:44:37;6.60;99.90
32865;DHT22;19219;44.500;11.188;2023-01-16T03:47:08;6.70;99.90
32865;DHT22;19219;44.500;11.188;2023-01-16T03:49:38;6.70;99.90
32865;DHT22;19219;44.500;11.188;2023-01-16T03:52:07;6.70;99.90
32865;DHT22;19219;44.500;11.188;2023-01-16T03:57:26;6.70;99.90
32865;DHT22;19219;44.500;11.188;2023-01-16T03:59:54;6.80;99.90
32865;DHT22;19219;44.500;11.188;2023-01-16T04:05:26;6.80;99.90
32865;DHT22;19219;44.500;11.188;2023-01-16T04:08:08;6.90;99.90
32865;DHT22;19219;44.500;11.188;2023-01-16T04:10:38;7.00;99.90
32865;DHT22;19219;44.500;11.188;2023-01-16T04:13:07;6.90;99.90
32865;DHT22;19219;44.500;11.188;2023-01-16T04:15:50;6.90;99.90
32865;DHT22;19219;44.500;11.188;2023-01-16T04:18:16;7.00;99.90
32865;DHT22;19219;44.500;11.188;2023-01-16T04:20:45;7.00;99.90
32865;DHT22;19219;44.500;11.188;2023-01-16T04:23:13;6.90;99.90
32865;DHT22;19219;44.500;11.188;2023-01-16T04:25:39;7.00;99.90
32865;DHT22;19219;44.500;11.188;2023-01-16T04:28:04;7.00;99.90
32865;DHT22;19219;44.500;11.188;2023-01-16T04:30:30;7.00;99.90
32865;DHT22;19219;44.500;11.188;2023-01-16T04:32:56;7.00;99.90
32865;DHT22;19219;44.500;11.188;2023-01-16T04:35:21;7.00;99.90
32865;DHT22;19219;44.500;11.188;2023-01-16T04:37:47;6.90;99.90
32865;DHT22;19219;44.500;11.188;2023-01-16T04:40:13;6.90;99.90
32865;DHT22;19219;44.500;11.188;2023-01-16T04:42:38;7.00;99.90
32865;DHT22;19219;44.500;11.188;2023-01-16T04:45:05;7.00;99.90
32865;DHT22;19219;44.500;11.188;2023-01-16T04:47:30;7.00;99.90
32865;DHT22;19219;44.500;11.188;2023-01-16T04:49:56;7.00;99.90
32865;DHT22;19219;44.500;11.188;2023-01-16T04:52:22;7.00;99.90
32865;DHT22;19219;44.500;11.188;2023-01-16T04:54:47;7.00;99.90
32865;DHT22;19219;44.500;11.188;2023-01-16T04:57:13;6.90;99.90
32865;DHT22;19219;44.500;11.188;2023-01-16T04:59:39;6.90;99.90
32865;DHT22;19219;44.500;11.188;2023-01-16T05:02:04;6.80;99.90
32865;DHT22;19219;44.500;11.188;2023-01-16T05:04:30;6.80;99.90
32865;DHT22;19219;44.500;11.188;2023-01-16T05:06:56;6.90;99.90
32865;DHT22;19219;44.500;11.188;2023-01-16T05:09:21;6.90;99.90
32865;DHT22;19219;44.500;11.188;2023-01-16T05:11:47;6.90;99.90
32865;DHT22;19219;44.500;11.188;2023-01-16T05:14:13;6.80;99.90
32865;DHT22;19219;44.500;11.188;2023-01-16T05:16:39;6.80;99.90
32865;DHT22;19219;44.500;11.188;2023-01-16T05:19:08;6.70;99.90
32865;DHT22;19219;44.500;11.188;2023-01-16T05:21:34;6.70;99.90
32865;DHT22;19219;44.500;11.188;2023-01-16T05:23:59;6.70;99.90
32865;DHT22;19219;44.500;11.188;2023-01-16T05:26:25;6.70;99.90
32865;DHT22;19219;44.500;11.188;2023-01-16T05:28:51;6.70;99.90
32865;DHT22;19219;44.500;11.188;2023-01-16T05:31:17;6.70;99.90
32865;DHT22;19219;44.500;11.188;2023-01-16T05:33:43;6.70;99.90
32865;DHT22;19219;44.500;11.188;2023-01-16T05:36:09;6.60;99.90
32865;DHT22;19219;44.500;11.188;2023-01-16T05:38:35;6.70;99.90
32865;DHT22;19219;44.500;11.188;2023-01-16T05:41:00;6.70;99.90
32865;DHT22;19219;44.500;11.188;2023-01-16T05:43:26;6.70;99.90
32865;DHT22;19219;44.500;11.188;2023-01-16T05:45:52;6.80;99.90
32865;DHT22;19219;44.500;11.188;2023-01-16T05:48:18;6.80;99.90
32865;DHT22;19219;44.500;11.188;2023-01-16T05:50:44;6.70;99.90
32865;DHT22;19219;44.500;11.188;2023-01-16T05:53:10;6.70;99.90
32865;DHT22;19219;44.500;11.188;2023-01-16T05:55:46;6.60;99.90
32865;DHT22;19219;44.500;11.188;2023-01-16T05:58:14;6.60;99.90
32865;DHT22;19219;44.500;11.188;2023-01-16T06:00:40;6.50;99.90
32865;DHT22;19219;44.500;11.188;2023-01-16T06:03:07;6.50;99.90
32865;DHT22;19219;44.500;11.188;2023-01-16T06:05:33;6.50;99.90
32865;DHT22;19219;44.500;11.188;2023-01-16T06:07:59;6.50;99.90
32865;DHT22;19219;44.500;11.188;2023-01-16T06:10:25;6.40;99.90
32865;DHT22;19219;44.500;11.188;2023-01-16T06:12:51;6.40;99.90
32865;DHT22;19219;44.500;11.188;2023-01-16T06:15:20;6.40;99.90
32865;DHT22;19219;44.500;11.188;2023-01-16T06:17:45;6.40;99.90
32865;DHT22;19219;44.500;11.188;2023-01-16T06:20:11;6.40;99.90
32865;DHT22;19219;44.500;11.188;2023-01-16T06:22:37;6.40;99.90
32865;DHT22;19219;44.500;11.188;2023-01-16T06:25:04;6.30;99.90
32865;DHT22;19219;44.500;11.188;2023-01-16T06:27:30;6.30;99.90
32865;DHT22;19219;44.500;11.188;2023-01-16T06:29:57;6.40;99.90
32865;DHT22;19219;44.500;11.188;2023-01-16T06:32:23;6.30;99.90
32865;DHT22;19219;44.500;11.188;2023-01-16T06:34:49;6.30;99.90
32865;DHT22;19219;44.500;11.188;2023-01-16T06:37:14;6.20;99.90
32865;DHT22;19219;44.500;11.188;2023-01-16T06:39:40;6.20;99.90
32865;DHT22;19219;44.500;11.188;2023-01-16T06:42:06;6.20;99.90
32865;DHT22;19219;44.500;11.188;2023-01-16T06:44:32;6.20;99.90
32865;DHT22;19219;44.500;11.188;2023-01-16T06:46:59;6.20;99.90
32865;DHT22;19219;44.500;11.188;2023-01-16T06:49:25;6.20;99.90
32865;DHT22;19219;44.500;11.188;2023-01-16T06:51:50;6.10;99.90
32865;DHT22;19219;44.500;11.188;2023-01-16T06:54:16;6.10;99.90
32865;DHT22;19219;44.500;11.188;2023-01-16T06:56:42;6.10;99.90
32865;DHT22;19219;44.500;11.188;2023-01-16T06:59:07;6.00;99.90
32865;DHT22;19219;44.500;11.188;2023-01-16T07:01:33;5.90;99.90
32865;DHT22;19219;44.500;11.188;2023-01-16T07:03:59;5.80;99.90
32865;DHT22;19219;44.500;11.188;2023-01-16T07:06:24;5.80;99.90
32865;DHT22;19219;44.500;11.188;2023-01-16T07:08:50;5.80;99.90
32865;DHT22;19219;44.500;11.188;2023-01-16T07:11:17;5.80;99.90
32865;DHT22;19219;44.500;11.188;2023-01-16T07:13:42;5.80;99.90
32865;DHT22;19219;44.500;11.188;2023-01-16T07:16:13;5.80;99.90
32865;DHT22;19219;44.500;11.188;2023-01-16T07:18:57;5.80;99.90
32865;DHT22;19219;44.500;11.188;2023-01-16T07:21:43;5.80;99.90
32865;DHT22;19219;44.500;11.188;2023-01-16T07:24:32;5.90;99.90
32865;DHT22;19219;44.500;11.188;2023-01-16T07:27:00;6.00;99.90
32865;DHT22;19219;44.500;11.188;2023-01-16T07:29:29;6.00;99.90
32865;DHT22;19219;44.500;11.188;2023-01-16T07:31:57;6.00;99.90
32865;DHT22;19219;44.500;11.188;2023-01-16T07:34:23;6.10;99.90
32865;DHT22;19219;44.500;11.188;2023-01-16T07:36:49;6.10;99.90
32865;DHT22;19219;44.500;11.188;2023-01-16T07:39:14;6.00;99.90
32865;DHT22;19219;44.500;11.188;2023-01-16T07:41:40;6.00;99.90
32865;DHT22;19219;44.500;11.188;2023-01-16T07:44:06;6.00;99.90
32865;DHT22;19219;44.500;11.188;2023-01-16T07:46:32;6.10;99.90
32865;DHT22;19219;44.500;11.188;2023-01-16T07:48:58;6.10;99.90
32865;DHT22;19219;44.500;11.188;2023-01-16T07:51:24;6.10;99.90
32865;DHT22;19219;44.500;11.188;2023-01-16T07:53:50;6.00;99.90
32865;DHT22;19219;44.500;11.188;2023-01-16T07:56:15;6.10;99.90
32865;DHT22;19219;44.500;11.188;2023-01-16T07:58:41;6.20;99.90
32865;DHT22;19219;44.500;11.188;2023-01-16T08:01:09;6.20;99.90
32865;DHT22;19219;44.500;11.188;2023-01-16T08:03:35;6.40;99.90
32865;DHT22;19219;44.500;11.188;2023-01-16T08:06:01;6.60;99.90
32865;DHT22;19219;44.500;11.188;2023-01-16T08:08:28;6.70;99.90
32865;DHT22;19219;44.500;11.188;2023-01-16T08:10:57;6.90;99.90
32865;DHT22;19219;44.500;11.188;2023-01-16T08:13:24;7.00;99.90
32865;DHT22;19219;44.500;11.188;2023-01-16T08:15:50;7.00;99.90
32865;DHT22;19219;44.500;11.188;2023-01-16T08:18:17;7.10;99.90
32865;DHT22;19219;44.500;11.188;2023-01-16T08:20:44;7.20;99.90
32865;DHT22;19219;44.500;11.188;2023-01-16T08:23:10;7.50;99.90
32865;DHT22;19219;44.500;11.188;2023-01-16T08:25:37;7.70;99.90
32865;DHT22;19219;44.500;11.188;2023-01-16T08:28:03;8.00;99.90
32865;DHT22;19219;44.500;11.188;2023-01-16T08:30:29;9.20;99.90
32865;DHT22;19219;44.500;11.188;2023-01-16T08:32:59;11.00;99.90
32865;DHT22;19219;44.500;11.188;2023-01-16T08:35:25;13.10;99.90
32865;DHT22;19219;44.500;11.188;2023-01-16T08:37:51;14.30;99.90
32865;DHT22;19219;44.500;11.188;2023-01-16T08:40:17;15.40;99.90
32865;DHT22;19219;44.500;11.188;2023-01-16T08:42:43;16.50;99.90
32865;DHT22;19219;44.500;11.188;2023-01-16T08:45:27;16.80;99.90
32865;DHT22;19219;44.500;11.188;2023-01-16T08:48:15;18.20;99.90
32865;DHT22;19219;44.500;11.188;2023-01-16T08:51:17;19.20;99.90
32865;DHT22;19219;44.500;11.188;2023-01-16T08:53:54;20.30;99.90
32865;DHT22;19219;44.500;11.188;2023-01-16T08:56:21;20.90;99.90
32865;DHT22;19219;44.500;11.188;2023-01-16T08:58:47;21.30;99.10
32865;DHT22;19219;44.500;11.188;2023-01-16T09:01:13;21.30;97.20
32865;DHT22;19219;44.500;11.188;2023-01-16T09:03:40;20.50;96.90
32865;DHT22;19219;44.500;11.188;2023-01-16T09:06:06;19.60;97.80
32865;DHT22;19219;44.500;11.188;2023-01-16T09:08:32;18.50;99.90
32865;DHT22;19219;44.500;11.188;2023-01-16T09:10:58;17.20;99.90
32865;DHT22;19219;44.500;11.188;2023-01-16T09:13:42;17.30;99.90
32865;DHT22;19219;44.500;11.188;2023-01-16T09:18:42;18.00;99.90
32865;DHT22;19219;44.500;11.188;2023-01-16T09:21:08;17.50;99.90
32865;DHT22;19219;44.500;11.188;2023-01-16T09:23:34;17.60;99.90
32865;DHT22;19219;44.500;11.188;2023-01-16T09:25:59;17.10;99.90
32865;DHT22;19219;44.500;11.188;2023-01-16T09:28:25;16.20;99.90
32865;DHT22;19219;44.500;11.188;2023-01-16T09:30:51;16.30;99.90
32865;DHT22;19219;44.500;11.188;2023-01-16T09:33:17;16.70;99.90
32865;DHT22;19219;44.500;11.188;2023-01-16T09:35:42;16.50;99.90
32865;DHT22;19219;44.500;11.188;2023-01-16T09:38:08;17.00;99.90
32865;DHT22;19219;44.500;11.188;2023-01-16T09:40:34;17.90;99.90
32865;DHT22;19219;44.500;11.188;2023-01-16T09:45:57;17.00;99.90
32865;DHT22;19219;44.500;11.188;2023-01-16T09:48:27;17.00;99.90
32865;DHT22;19219;44.500;11.188;2023-01-16T09:50:57;17.30;99.90
32865;DHT22;19219;44.500;11.188;2023-01-16T09:56:41;17.10;99.90
32865;DHT22;19219;44.500;11.188;2023-01-16T09:59:39;15.60;99.90
32865;DHT22;19219;44.500;11.188;2023-01-16T10:02:25;14.90;99.90
32865;DHT22;19219;44.500;11.188;2023-01-16T10:04:53;14.40;99.90
32865;DHT22;19219;44.500;11.188;2023-01-16T10:22:11;12.70;99.90
32865;DHT22;19219;44.500;11.188;2023-01-16T10:24:39;11.90;99.90
32865;DHT22;19219;44.500;11.188;2023-01-16T10:27:44;11.40;99.90
32865;DHT22;19219;44.500;11.188;2023-01-16T10:30:21;11.00;99.90
32865;DHT22;19219;44.500;11.188;2023-01-16T10:33:16;10.60;99.90
32865;DHT22;19219;44.500;11.188;2023-01-16T10:35:45;10.60;99.90
32865;DHT22;19219;44.500;11.188;2023-01-16T10:40:44;10.50;99.90
32865;DHT22;19219;44.500;11.188;2023-01-16T10:43:19;10.40;99.90
32865;DHT22;19219;44.500;11.188;2023-01-16T10:46:15;10.40;99.90
32865;DHT22;19219;44.500;11.188;2023-01-16T10:49:01;10.30;99.90
32865;DHT22;19219;44.500;11.188;2023-01-16T10:51:47;10.10;99.90
32865;DHT22;19219;44.500;11.188;2023-01-16T10:54:13;10.20;99.90
32865;DHT22;19219;44.500;11.188;2023-01-16T10:56:39;10.20;99.90
32865;DHT22;19219;44.500;11.188;2023-01-16T10:59:08;10.00;99.90
32865;DHT22;19219;44.500;11.188;2023-01-16T11:01:36;9.90;99.90
32865;DHT22;19219;44.500;11.188;2023-01-16T11:04:05;10.00;99.90
32865;DHT22;19219;44.500;11.188;2023-01-16T11:06:31;9.90;99.90
32865;DHT22;19219;44.500;11.188;2023-01-16T11:09:05;10.00;99.90
32865;DHT22;19219;44.500;11.188;2023-01-16T11:11:35;10.00;99.90
32865;DHT22;19219;44.500;11.188;2023-01-16T11:14:39;9.90;99.90
32865;DHT22;19219;44.500;11.188;2023-01-16T11:20:18;10.10;99.90
32865;DHT22;19219;44.500;11.188;2023-01-16T11:22:52;10.20;99.90
32865;DHT22;19219;44.500;11.188;2023-01-16T11:25:22;10.40;99.90
32865;DHT22;19219;44.500;11.188;2023-01-16T11:27:49;10.50;99.90
32865;DHT22;19219;44.500;11.188;2023-01-16T11:30:22;10.40;99.90
32865;DHT22;19219;44.500;11.188;2023-01-16T11:32:54;10.30;99.90
32865;DHT22;19219;44.500;11.188;2023-01-16T11:35:30;10.20;99.90
32865;DHT22;19219;44.500;11.188;2023-01-16T11:37:57;10.20;99.90
32865;DHT22;19219;44.500;11.188;2023-01-16T11:40:25;10.20;99.90
32865;DHT22;19219;44.500;11.188;2023-01-16T11:42:56;10.10;99.90
32865;DHT22;19219;44.500;11.188;2023-01-16T11:45:44;10.10;99.90
32865;DHT22;19219;44.500;11.188;2023-01-16T11:51:00;10.00;99.90
32865;DHT22;19219;44.500;11.188;2023-01-16T11:53:33;9.90;99.90
32865;DHT22;19219;44.500;11.188;2023-01-16T12:13:57;10.00;99.90
32865;DHT22;19219;44.500;11.188;2023-01-16T12:32:56;9.80;99.90
32865;DHT22;19219;44.500;11.188;2023-01-16T12:35:49;9.80;99.90
32865;DHT22;19219;44.500;11.188;2023-01-16T12:38:36;10.00;99.90
32865;DHT22;19219;44.500;11.188;2023-01-16T12:41:15;10.10;99.90
32865;DHT22;19219;44.500;11.188;2023-01-16T12:47:02;10.70;99.90
32865;DHT22;19219;44.500;11.188;2023-01-16T12:59:50;10.80;99.90
32865;DHT22;19219;44.500;11.188;2023-01-16T13:02:32;10.90;99.90
32865;DHT22;19219;44.500;11.188;2023-01-16T13:05:21;10.60;99.90
32865;DHT22;19219;44.500;11.188;2023-01-16T13:10:31;10.30;99.90
32865;DHT22;19219;44.500;11.188;2023-01-16T13:13:20;10.10;99.90
32865;DHT22;19219;44.500;11.188;2023-01-16T13:18:37;10.00;99.90
32865;DHT22;19219;44.500;11.188;2023-01-16T13:21:07;10.00;99.90
32865;DHT22;19219;44.500;11.188;2023-01-16T13:23:47;10.00;99.90
32865;DHT22;19219;44.500;11.188;2023-01-16T13:26:16;10.00;99.90
32865;DHT22;19219;44.500;11.188;2023-01-16T13:34:20;10.30;99.90
32865;DHT22;19219;44.500;11.188;2023-01-16T13:37:08;10.30;99.90
32865;DHT22;19219;44.500;11.188;2023-01-16T13:42:06;10.00;99.90
32865;DHT22;19219;44.500;11.188;2023-01-16T13:44:38;9.90;99.90
32865;DHT22;19219;44.500;11.188;2023-01-16T13:47:39;9.80;99.90
32865;DHT22;19219;44.500;11.188;2023-01-16T13:50:25;10.00;99.90
32865;DHT22;19219;44.500;11.188;2023-01-16T13:52:56;10.10;99.90
32865;DHT22;19219;44.500;11.188;2023-01-16T13:55:36;10.40;99.90
32865;DHT22;19219;44.500;11.188;2023-01-16T13:58:15;10.60;99.90
32865;DHT22;19219;44.500;11.188;2023-01-16T14:00:42;10.60;99.90
32865;DHT22;19219;44.500;11.188;2023-01-16T14:05:54;10.30;99.90
32865;DHT22;19219;44.500;11.188;2023-01-16T14:17:20;10.20;99.90
32865;DHT22;19219;44.500;11.188;2023-01-16T14:19:58;10.40;99.90
32865;DHT22;19219;44.500;11.188;2023-01-16T14:22:35;10.40;99.90
32865;DHT22;19219;44.500;11.188;2023-01-16T14:25:02;10.30;99.90
32865;DHT22;19219;44.500;11.188;2023-01-16T14:27:29;10.20;99.90
32865;DHT22;19219;44.500;11.188;2023-01-16T14:29:59;10.10;99.90
32865;DHT22;19219;44.500;11.188;2023-01-16T14:32:31;10.00;99.90
32865;DHT22;19219;44.500;11.188;2023-01-16T14:35:11;9.90;99.90
32865;DHT22;19219;44.500;11.188;2023-01-16T14:37:53;9.90;99.90
32865;DHT22;19219;44.500;11.188;2023-01-16T14:40:22;9.90;99.90
32865;DHT22;19219;44.500;11.188;2023-01-16T14:43:29;9.90;99.90
32865;DHT22;19219;44.500;11.188;2023-01-16T14:53:04;9.70;99.90
32865;DHT22;19219;44.500;11.188;2023-01-16T14:59:13;9.60;99.90
32865;DHT22;19219;44.500;11.188;2023-01-16T15:01:47;9.50;99.90
32865;DHT22;19219;44.500;11.188;2023-01-16T15:04:40;9.30;99.90
32865;DHT22;19219;44.500;11.188;2023-01-16T15:07:11;9.10;99.90
32865;DHT22;19219;44.500;11.188;2023-01-16T15:09:40;9.00;99.90
32865;DHT22;19219;44.500;11.188;2023-01-16T15:12:39;9.00;99.90
32865;DHT22;19219;44.500;11.188;2023-01-16T15:18:01;8.80;99.90
32865;DHT22;19219;44.500;11.188;2023-01-16T15:20:46;8.80;99.90
32865;DHT22;19219;44.500;11.188;2023-01-16T15:23:33;8.80;99.90
32865;DHT22;19219;44.500;11.188;2023-01-16T15:29:04;8.80;99.90
32865;DHT22;19219;44.500;11.188;2023-01-16T15:31:38;8.70;99.90
32865;DHT22;19219;44.500;11.188;2023-01-16T15:36:42;8.60;99.90
32865;DHT22;19219;44.500;11.188;2023-01-16T15:44:40;8.40;99.90
32865;DHT22;19219;44.500;11.188;2023-01-16T15:52:47;8.20;99.90
32865;DHT22;19219;44.500;11.188;2023-01-16T15:57:48;8.10;99.90
32865;DHT22;19219;44.500;11.188;2023-01-16T16:00:57;8.10;99.90
32865;DHT22;19219;44.500;11.188;2023-01-16T16:03:24;8.10;99.90
32865;DHT22;19219;44.500;11.188;2023-01-16T16:05:55;8.10;99.90
32865;DHT22;19219;44.500;11.188;2023-01-16T16:08:23;8.00;99.90
32865;DHT22;19219;44.500;11.188;2023-01-16T16:10:54;7.90;99.90
32865;DHT22;19219;44.500;11.188;2023-01-16T16:13:40;7.90;99.90
32865;DHT22;19219;44.500;11.188;2023-01-16T16:16:20;7.90;99.90
32865;DHT22;19219;44.500;11.188;2023-01-16T16:19:05;7.90;99.90
32865;DHT22;19219;44.500;11.188;2023-01-16T16:24:04;7.80;99.90
32865;DHT22;19219;44.500;11.188;2023-01-16T16:26:31;7.70;99.90
32865;DHT22;19219;44.500;11.188;2023-01-16T16:29:01;7.70;99.90
32865;DHT22;19219;44.500;11.188;2023-01-16T16:36:46;7.60;99.90
32865;DHT22;19219;44.500;11.188;2023-01-16T16:42:00;7.50;99.90
32865;DHT22;19219;44.500;11.188;2023-01-16T16:44:46;7.50;99.90
32865;DHT22;19219;44.500;11.188;2023-01-16T16:47:29;7.50;99.90
32865;DHT22;19219;44.500;11.188;2023-01-16T16:49:56;7.40;99.90
32865;DHT22;19219;44.500;11.188;2023-01-16T16:52:35;7.40;99.90
32865;DHT22;19219;44.500;11.188;2023-01-16T16:57:54;7.50;99.90
32865;DHT22;19219;44.500;11.188;2023-01-16T17:00:20;7.50;99.90
32865;DHT22;19219;44.500;11.188;2023-01-16T17:02:48;7.60;99.90
32865;DHT22;19219;44.500;11.188;2023-01-16T17:05:15;7.70;99.90
32865;DHT22;19219;44.500;11.188;2023-01-16T17:07:45;7.70;99.90
32865;DHT22;19219;44.500;11.188;2023-01-16T17:10:15;7.60;99.90
32865;DHT22;19219;44.500;11.188;2023-01-16T17:12:42;7.60;99.90
32865;DHT22;19219;44.500;11.188;2023-01-16T17:15:29;7.60;99.90
32865;DHT22;19219;44.500;11.188;2023-01-16T17:17:58;7.50;99.90
32865;DHT22;19219;44.500;11.188;2023-01-16T17:20:25;7.50;99.90
32865;DHT22;19219;44.500;11.188;2023-01-16T17:22:51;7.50;99.90
32865;DHT22;19219;44.500;11.188;2023-01-16T17:25:18;7.60;99.90
32865;DHT22;19219;44.500;11.188;2023-01-16T17:27:47;7.70;99.90
32865;DHT22;19219;44.500;11.188;2023-01-16T17:30:13;7.70;99.90
32865;DHT22;19219;44.500;11.188;2023-01-16T17:32:39;7.70;99.90
32865;DHT22;19219;44.500;11.188;2023-01-16T17:35:08;7.80;99.90
32865;DHT22;19219;44.500;11.188;2023-01-16T17:37:37;7.80;99.90
32865;DHT22;19219;44.500;11.188;2023-01-16T17:40:03;7.80;99.90
32865;DHT22;19219;44.500;11.188;2023-01-16T17:42:29;7.90;99.90
32865;DHT22;19219;44.500;11.188;2023-01-16T17:45:28;8.00;99.90
32865;DHT22;19219;44.500;11.188;2023-01-16T17:48:13;8.10;99.90
32865;DHT22;19219;44.500;11.188;2023-01-16T17:50:39;8.10;99.90
32865;DHT22;19219;44.500;11.188;2023-01-16T17:53:11;8.00;99.90
32865;DHT22;19219;44.500;11.188;2023-01-16T17:55:37;8.00;99.90
32865;DHT22;19219;44.500;11.188;2023-01-16T17:58:29;8.00;99.90
32865;DHT22;19219;44.500;11.188;2023-01-16T18:01:03;7.90;99.90
32865;DHT22;19219;44.500;11.188;2023-01-16T18:03:30;7.90;99.90
32865;DHT22;19219;44.500;11.188;2023-01-16T18:06:04;7.90;99.90
32865;DHT22;19219;44.500;11.188;2023-01-16T18:08:30;7.80;99.90
32865;DHT22;19219;44.500;11.188;2023-01-16T18:10:58;7.80;99.90
32865;DHT22;19219;44.500;11.188;2023-01-16T18:13:24;7.80;99.90
32865;DHT22;19219;44.500;11.188;2023-01-16T18:16:13;7.80;99.90
32865;DHT22;19219;44.500;11.188;2023-01-16T18:18:58;7.80;99.90
32865;DHT22;19219;44.500;11.188;2023-01-16T18:21:24;7.80;99.90
32865;DHT22;19219;44.500;11.188;2023-01-16T18:24:08;7.80;99.90
32865;DHT22;19219;44.500;11.188;2023-01-16T18:26:34;7.70;99.90
32865;DHT22;19219;44.500;11.188;2023-01-16T18:29:00;7.70;99.90
32865;DHT22;19219;44.500;11.188;2023-01-16T18:31:25;7.60;99.90
32865;DHT22;19219;44.500;11.188;2023-01-16T18:33:51;7.60;99.90
32865;DHT22;19219;44.500;11.188;2023-01-16T18:36:21;7.60;99.90
32865;DHT22;19219;44.500;11.188;2023-01-16T18:38:49;7.60;99.90
32865;DHT22;19219;44.500;11.188;2023-01-16T18:41:33;7.60;99.90
32865;DHT22;19219;44.500;11.188;2023-01-16T18:44:17;7.70;99.90
32865;DHT22;19219;44.500;11.188;2023-01-16T18:47:02;7.70;99.90
32865;DHT22;19219;44.500;11.188;2023-01-16T18:49:46;7.80;99.90
32865;DHT22;19219;44.500;11.188;2023-01-16T18:52:33;7.70;99.90
32865;DHT22;19219;44.500;11.188;2023-01-16T18:55:19;7.60;99.90
32865;DHT22;19219;44.500;11.188;2023-01-16T18:58:04;7.60;99.90
32865;DHT22;19219;44.500;11.188;2023-01-16T19:01:12;7.60;99.90
32865;DHT22;19219;44.500;11.188;2023-01-16T19:04:21;7.50;99.90
32865;DHT22;19219;44.500;11.188;2023-01-16T19:07:10;7.50;99.90
32865;DHT22;19219;44.500;11.188;2023-01-16T19:09:38;7.50;99.90